»·PEaware :: TEXAN18 KRND-KRND

TEXAN18 :: KRND-KRND

FLIGHT INFORMATION

Flight Status: Arrived
Operator: Unknown
More flights by this operator :: More flights under this callsign
Pilot: Indie I. (23339)
Aircraft: BEECH AIRCRAFT T-6A TEXAN
(TEX2)
More flights by this aircraft type
Origin: KRND Randolph AFB
United States
Destination: KRND Randolph AFB
United States
More flights between these airports :: More routes between these airports
Route: +FALLS6
File this flight plan on PilotEdge
Remarks:
Altitude:
(Current/Filed)
130ft
Speed:
(Current/Filed)
0kts
Departed: 16-Mar-20 06:34 AM
Arrived: 16-Mar-20 07:43 AM
Distance/Time
Traveled:
0nm/1:08
Distance/Time
To Go:
Arrived

Flight Plot

Page will automatically refresh every two minutes.

Flight plan parsing failed; only flown route is shown


Map Options




Map Legend


Flown Route
Filed Route
Departure Airport
Arrival Airport
Navaid (VOR, NDB)
Fix

Horizontal Profiles

Position Reports

Time Latitude Longitude Heading Altitude Ground
Speed
16-Mar-20 06:29 29.532076 -98.288938 322 765ft 9kts
16-Mar-20 06:30 29.534485 -98.290831 322 765ft 8kts
16-Mar-20 06:31 29.534730 -98.291409 277 765ft 0kts
16-Mar-20 06:32 29.534730 -98.291411 277 765ft 0kts
16-Mar-20 06:34 29.532953 -98.291875 149 765ft 67kts
16-Mar-20 06:34 29.501924 -98.278224 178 1546ft 196kts
16-Mar-20 06:35 29.447027 -98.260560 170 4035ft 192kts
16-Mar-20 06:36 29.397567 -98.248346 166 7150ft 182kts
16-Mar-20 06:37 29.346906 -98.233368 166 9864ft 188kts
16-Mar-20 06:38 29.294344 -98.216307 163 12249ft 194kts
16-Mar-20 06:39 29.235126 -98.198579 165 13061ft 250kts
16-Mar-20 06:40 29.167502 -98.179844 166 13125ft 247kts
16-Mar-20 06:41 29.099404 -98.163374 169 13013ft 249kts
16-Mar-20 06:42 29.079003 -98.095085 96 12958ft 246kts
16-Mar-20 06:43 29.071274 -98.017532 95 13086ft 247kts
16-Mar-20 06:44 29.101934 -97.988024 187 12695ft 243kts
16-Mar-20 06:45 29.059697 -97.959448 146 14280ft 151kts
16-Mar-20 06:46 29.077036 -97.968584 303 15706ft 111kts
16-Mar-20 06:47 29.090886 -98.005505 262 16762ft 122kts
16-Mar-20 06:48 29.092831 -98.043896 344 13658ft 219kts
16-Mar-20 06:49 29.082318 -98.068876 188 13430ft 179kts
16-Mar-20 06:50 29.074895 -98.047387 47 13261ft 156kts
16-Mar-20 06:51 29.107616 -98.024044 331 13001ft 122kts
16-Mar-20 06:52 29.114201 -98.062607 276 12351ft 115kts
16-Mar-20 06:53 29.123671 -98.101847 10 12362ft 172kts
16-Mar-20 06:54 29.109675 -98.049474 89 11945ft 270kts
16-Mar-20 06:55 29.109742 -98.039873 89 11836ft 277kts
16-Mar-20 06:56 29.106744 -97.988393 153 11289ft 272kts
16-Mar-20 06:57 29.056637 -97.997517 193 10673ft 278kts
16-Mar-20 06:58 29.051651 -97.995858 11 12855ft 178kts
16-Mar-20 06:59 29.099095 -98.018562 179 14148ft 148kts
16-Mar-20 07:00 29.091589 -98.017730 353 12308ft 205kts
16-Mar-20 07:01 29.075778 -98.013401 182 10849ft 254kts
16-Mar-20 07:02 29.028460 -98.016505 130 10123ft 258kts
16-Mar-20 07:03 29.056351 -97.992435 356 9172ft 278kts
16-Mar-20 07:04 29.098627 -97.980432 19 7963ft 314kts
16-Mar-20 07:05 29.146262 -97.961739 61 11100ft 195kts
16-Mar-20 07:06 29.157544 -97.962738 197 9419ft 268kts
16-Mar-20 07:07 29.108482 -98.001918 199 9375ft 253kts
16-Mar-20 07:08 29.084651 -98.008063 336 9720ft 268kts
16-Mar-20 07:09 29.132681 -98.023728 227 10642ft 148kts
16-Mar-20 07:10 29.120955 -98.026164 135 9159ft 109kts
16-Mar-20 07:11 29.141900 -98.039153 330 7647ft 266kts
16-Mar-20 07:12 29.147762 -98.036245 14 9655ft 190kts
16-Mar-20 07:13 29.124216 -98.018025 358 11269ft 132kts
16-Mar-20 07:14 29.094340 -98.019181 181 8611ft 292kts
16-Mar-20 07:15 29.062065 -97.986389 21 7917ft 192kts
16-Mar-20 07:16 29.116972 -97.967578 7 6421ft 248kts
16-Mar-20 07:17 29.179764 -97.972358 338 6022ft 223kts
16-Mar-20 07:18 29.229599 -98.012765 318 5752ft 226kts
16-Mar-20 07:19 29.274744 -98.059620 318 4360ft 218kts
16-Mar-20 07:20 29.321158 -98.102262 322 2671ft 210kts
16-Mar-20 07:21 29.364391 -98.142496 320 2304ft 209kts
16-Mar-20 07:22 29.397584 -98.194230 288 2021ft 210kts
16-Mar-20 07:23 29.418201 -98.257713 295 1754ft 211kts
16-Mar-20 07:24 29.442473 -98.315952 326 1833ft 206kts
16-Mar-20 07:25 29.498091 -98.329789 18 1849ft 204kts
16-Mar-20 07:26 29.551344 -98.342034 13 1806ft 206kts
16-Mar-20 07:27 29.541136 -98.297551 150 1783ft 211kts
16-Mar-20 07:28 29.536343 -98.311876 335 1796ft 136kts
16-Mar-20 07:29 29.532221 -98.291535 150 767ft 100kts
16-Mar-20 07:30 29.509843 -98.293038 327 1680ft 145kts
16-Mar-20 07:31 29.544743 -98.310960 27 1652ft 123kts
16-Mar-20 07:32 29.526838 -98.287906 149 828ft 114kts
16-Mar-20 07:33 29.502080 -98.290369 330 1768ft 152kts
16-Mar-20 07:34 29.539399 -98.312963 339 1762ft 138kts
16-Mar-20 07:35 29.526291 -98.320423 158 2549ft 223kts
16-Mar-20 07:36 29.462624 -98.326156 210 2277ft 222kts
16-Mar-20 07:37 29.501592 -98.328649 21 1770ft 214kts
16-Mar-20 07:38 29.555964 -98.342558 37 1810ft 207kts
16-Mar-20 07:39 29.538200 -98.295826 149 1800ft 210kts
16-Mar-20 07:40 29.538690 -98.310106 333 1765ft 124kts
16-Mar-20 07:41 29.531007 -98.290550 148 766ft 100kts
16-Mar-20 07:42 29.522638 -98.283742 54 765ft 12kts
16-Mar-20 07:43 29.522823 -98.283448 55 765ft 0kts

Navigation Log

Ident Type
Flight plan parsing failed, navigation log unavailable